Time;durP1;ratioP1;P1;durP2;ratioP2;P2;SDS_P1;SDS_P2;PMS_P1;PMS_P2;Temp;Humidity;BMP_temperature;BMP_pressure;BME280_temperature;BME280_humidity;BME280_pressure;Samples;Min_cycle;Max_cycle;Signal;HPM_P1;HPM_P2
2022/05/14 00:01:49;;;;;;;;;3.00;3.00;;;;;;;;5057067;28;45388;-73
2022/05/14 00:04:14;;;;;;;;;4.25;3.25;;;;;;;;5061974;28;46942;-73
2022/05/14 00:06:39;;;;;;;;;2.00;2.00;;;;;;;;5059501;27;45343;-74
2022/05/14 00:09:05;;;;;;;;;5.00;3.00;;;;;;;;5058958;28;45521;-74
2022/05/14 00:14:14;;;;;;;;;4.00;3.00;;;;;;;;5043041;28;45417;-75
2022/05/14 00:16:40;;;;;;;;;2.25;1.25;;;;;;;;5061898;28;45417;-75
2022/05/14 00:19:06;;;;;;;;;3.50;2.00;;;;;;;;5072931;27;45583;-74
2022/05/14 00:21:32;;;;;;;;;1.00;1.00;;;;;;;;5062188;28;45442;-74
2022/05/14 00:23:58;;;;;;;;;3.00;3.00;;;;;;;;5040435;28;45406;-73
2022/05/14 00:26:24;;;;;;;;;3.00;2.75;;;;;;;;5058159;28;45525;-74
2022/05/14 00:28:49;;;;;;;;;3.00;2.00;;;;;;;;5055699;28;45428;-73
2022/05/14 00:31:14;;;;;;;;;4.00;3.00;;;;;;;;5059841;28;45375;-73
2022/05/14 00:33:39;;;;;;;;;5.50;3.00;;;;;;;;5059003;28;45515;-76
2022/05/14 00:36:05;;;;;;;;;3.25;3.25;;;;;;;;5043200;28;45483;-75
2022/05/14 00:38:30;;;;;;;;;2.50;2.50;;;;;;;;5067353;28;45504;-75
2022/05/14 00:41:03;;;;;;;;;5.75;5.75;;;;;;;;5054793;28;45585;-76
2022/05/14 00:43:29;;;;;;;;;3.75;3.75;;;;;;;;5065918;28;47474;-74
2022/05/14 00:46:07;;;;;;;;;3.00;3.00;;;;;;;;5056626;27;45482;-75
2022/05/14 00:48:37;;;;;;;;;4.50;4.00;;;;;;;;5058859;28;45413;-73
2022/05/14 00:51:03;;;;;;;;;5.00;4.00;;;;;;;;5058814;28;45481;-74
2022/05/14 00:53:33;;;;;;;;;5.25;4.50;;;;;;;;5069660;27;46277;-76
2022/05/14 00:56:00;;;;;;;;;3.00;3.00;;;;;;;;5038222;28;45280;-75
2022/05/14 00:58:29;;;;;;;;;4.00;4.00;;;;;;;;5043038;28;45458;-75
2022/05/14 01:00:55;;;;;;;;;6.00;4.00;;;;;;;;5057556;28;45743;-76
2022/05/14 01:03:21;;;;;;;;;7.00;6.00;;;;;;;;5059051;27;46318;-74
2022/05/14 01:05:46;;;;;;;;;4.00;4.00;;;;;;;;5058568;28;45351;-74
2022/05/14 01:08:11;;;;;;;;;4.00;4.00;;;;;;;;5055365;28;45499;-75
2022/05/14 01:10:40;;;;;;;;;3.50;3.50;;;;;;;;5058751;28;45260;-76
2022/05/14 01:13:05;;;;;;;;;3.75;3.75;;;;;;;;5059656;28;45769;-77
2022/05/14 01:15:43;;;;;;;;;3.75;2.25;;;;;;;;5058467;27;45536;-73
2022/05/14 01:18:09;;;;;;;;;8.00;6.00;;;;;;;;5059206;28;45548;-74
2022/05/14 01:20:35;;;;;;;;;5.50;3.75;;;;;;;;5058199;28;45482;-74
2022/05/14 01:23:00;;;;;;;;;3.00;3.00;;;;;;;;5053680;28;47248;-73
2022/05/14 01:28:20;;;;;;;;;6.00;6.00;;;;;;;;5059822;28;45449;-74
2022/05/14 01:30:54;;;;;;;;;6.00;6.00;;;;;;;;5061302;28;45376;-75
2022/05/14 01:33:20;;;;;;;;;3.00;3.00;;;;;;;;5062787;28;46538;-75
2022/05/14 01:35:45;;;;;;;;;5.75;3.00;;;;;;;;5057740;28;45441;-73
2022/05/14 01:38:10;;;;;;;;;3.75;3.00;;;;;;;;5055343;28;45353;-75
2022/05/14 01:40:36;;;;;;;;;6.00;4.00;;;;;;;;5057613;28;45438;-74
2022/05/14 01:43:01;;;;;;;;;4.25;4.25;;;;;;;;5058120;28;46456;-74
2022/05/14 01:45:26;;;;;;;;;3.25;3.25;;;;;;;;5064932;27;45485;-74
2022/05/14 01:47:52;;;;;;;;;6.50;6.00;;;;;;;;5066662;27;45276;-75
2022/05/14 01:50:17;;;;;;;;;5.50;4.75;;;;;;;;5055888;28;45575;-75
2022/05/14 01:52:42;;;;;;;;;6.75;4.25;;;;;;;;5055447;28;46218;-74
2022/05/14 01:55:08;;;;;;;;;4.25;4.00;;;;;;;;5059553;28;45309;-75
2022/05/14 01:57:33;;;;;;;;;2.50;2.50;;;;;;;;5057868;28;45324;-74
2022/05/14 01:59:58;;;;;;;;;5.00;4.00;;;;;;;;5057474;28;45432;-75
2022/05/14 02:02:24;;;;;;;;;7.25;6.00;;;;;;;;5069184;28;46165;-73
2022/05/14 02:04:49;;;;;;;;;4.00;4.00;;;;;;;;5054078;28;45423;-74
2022/05/14 02:07:14;;;;;;;;;4.50;4.50;;;;;;;;5074535;27;45382;-74
2022/05/14 02:09:39;;;;;;;;;6.00;4.00;;;;;;;;5059807;28;45564;-75
2022/05/14 02:12:05;;;;;;;;;3.75;2.25;;;;;;;;5058330;28;45443;-74
2022/05/14 02:14:30;;;;;;;;;3.25;3.25;;;;;;;;5057578;28;45398;-74
2022/05/14 02:16:56;;;;;;;;;5.25;3.75;;;;;;;;5053533;28;45404;-73
2022/05/14 02:19:21;;;;;;;;;3.00;3.00;;;;;;;;5057395;28;45489;-74
2022/05/14 02:21:46;;;;;;;;;3.75;2.50;;;;;;;;5058425;28;47041;-73
2022/05/14 02:24:12;;;;;;;;;5.50;5.50;;;;;;;;5057539;28;45430;-73
2022/05/14 02:26:37;;;;;;;;;3.50;3.00;;;;;;;;5057347;28;45424;-73
2022/05/14 02:29:02;;;;;;;;;4.25;3.00;;;;;;;;5053381;28;45525;-73
2022/05/14 02:31:27;;;;;;;;;5.50;3.50;;;;;;;;5058900;28;46895;-73
2022/05/14 02:33:53;;;;;;;;;4.00;2.75;;;;;;;;5056993;28;47167;-73
2022/05/14 02:36:18;;;;;;;;;7.00;5.75;;;;;;;;5057215;28;45391;-74
2022/05/14 02:38:43;;;;;;;;;6.50;6.50;;;;;;;;5057421;28;45344;-73
2022/05/14 02:41:09;;;;;;;;;5.00;4.50;;;;;;;;5053775;28;46317;-74
2022/05/14 02:43:34;;;;;;;;;9.50;5.75;;;;;;;;5057378;28;45246;-74
2022/05/14 02:46:00;;;;;;;;;8.25;6.00;;;;;;;;5057743;28;45325;-74
2022/05/14 02:48:25;;;;;;;;;9.25;9.00;;;;;;;;5056648;28;45372;-73
2022/05/14 02:50:51;;;;;;;;;3.00;3.00;;;;;;;;5056849;28;45757;-74
2022/05/14 02:53:16;;;;;;;;;6.75;3.75;;;;;;;;5055009;28;45280;-74
2022/05/14 02:55:41;;;;;;;;;10.25;7.00;;;;;;;;5040156;28;45438;-74
2022/05/14 02:58:06;;;;;;;;;5.75;5.75;;;;;;;;5061453;28;45228;-74
2022/05/14 03:00:31;;;;;;;;;6.50;6.50;;;;;;;;5060416;27;46402;-74
2022/05/14 03:02:57;;;;;;;;;10.00;8.75;;;;;;;;5060389;28;45360;-75
2022/05/14 03:05:22;;;;;;;;;7.75;7.00;;;;;;;;5060751;27;45435;-74
2022/05/14 03:07:48;;;;;;;;;8.50;7.00;;;;;;;;5058411;28;45392;-72
2022/05/14 03:10:14;;;;;;;;;7.00;7.00;;;;;;;;5063402;28;46379;-74
2022/05/14 03:12:39;;;;;;;;;8.50;7.75;;;;;;;;5061840;28;45611;-74
2022/05/14 03:15:05;;;;;;;;;3.25;3.25;;;;;;;;5060047;28;45463;-74
2022/05/14 03:17:34;;;;;;;;;11.00;7.50;;;;;;;;5059827;28;45571;-73
2022/05/14 03:19:59;;;;;;;;;9.75;7.00;;;;;;;;5036767;28;46637;-73
2022/05/14 03:22:24;;;;;;;;;4.50;4.50;;;;;;;;5062393;28;45403;-74
2022/05/14 03:24:51;;;;;;;;;10.75;7.50;;;;;;;;5060236;27;45604;-73
2022/05/14 03:27:16;;;;;;;;;10.75;6.75;;;;;;;;5059849;27;45394;-75
2022/05/14 03:29:41;;;;;;;;;7.50;5.75;;;;;;;;5059577;28;47135;-74
2022/05/14 03:32:07;;;;;;;;;10.50;7.00;;;;;;;;5056248;28;45404;-74
2022/05/14 03:34:36;;;;;;;;;7.00;7.00;;;;;;;;5060328;28;45327;-73
2022/05/14 03:37:01;;;;;;;;;4.25;4.25;;;;;;;;5060796;27;45439;-74
2022/05/14 03:39:26;;;;;;;;;10.00;7.75;;;;;;;;5059592;28;46062;-73
2022/05/14 03:41:51;;;;;;;;;7.00;6.00;;;;;;;;5061981;28;45499;-74
2022/05/14 03:44:17;;;;;;;;;13.75;8.75;;;;;;;;5071575;28;45383;-73
2022/05/14 03:46:42;;;;;;;;;10.00;10.00;;;;;;;;5057302;28;45365;-72
2022/05/14 03:49:08;;;;;;;;;11.25;9.75;;;;;;;;5061625;28;46961;-72
2022/05/14 03:51:33;;;;;;;;;10.25;10.25;;;;;;;;5059443;28;45465;-73
2022/05/14 03:53:58;;;;;;;;;9.50;9.00;;;;;;;;5059506;27;45402;-72
2022/05/14 03:56:24;;;;;;;;;8.00;8.00;;;;;;;;5057787;28;45437;-72
2022/05/14 03:58:49;;;;;;;;;10.00;9.75;;;;;;;;5072161;28;46067;-72
2022/05/14 04:01:14;;;;;;;;;10.25;10.25;;;;;;;;5061233;28;45370;-73
2022/05/14 04:03:40;;;;;;;;;16.50;15.50;;;;;;;;5059450;27;45247;-72
2022/05/14 04:06:05;;;;;;;;;13.75;11.25;;;;;;;;5061802;28;45209;-73
2022/05/14 04:08:30;;;;;;;;;14.00;10.75;;;;;;;;5070888;27;46082;-73
2022/05/14 04:10:55;;;;;;;;;11.50;10.75;;;;;;;;5055169;28;45265;-72
2022/05/14 04:13:21;;;;;;;;;11.00;11.00;;;;;;;;5061335;27;45225;-72
2022/05/14 04:15:46;;;;;;;;;12.50;11.00;;;;;;;;5058944;28;45445;-73
2022/05/14 04:18:11;;;;;;;;;14.25;13.25;;;;;;;;5058795;28;46105;-73
2022/05/14 04:20:37;;;;;;;;;12.75;12.75;;;;;;;;5059434;28;45442;-73
2022/05/14 04:23:03;;;;;;;;;16.00;16.00;;;;;;;;5037347;28;45546;-73
2022/05/14 04:25:28;;;;;;;;;15.25;13.25;;;;;;;;5060725;28;45281;-73
2022/05/14 04:27:53;;;;;;;;;13.25;11.50;;;;;;;;5057653;28;45932;-74
2022/05/14 04:30:19;;;;;;;;;10.50;10.50;;;;;;;;5057099;28;45332;-74
2022/05/14 04:32:44;;;;;;;;;17.75;14.75;;;;;;;;5059299;27;45907;-73
2022/05/14 04:35:10;;;;;;;;;13.50;13.50;;;;;;;;5068966;27;45585;-73
2022/05/14 04:37:36;;;;;;;;;14.25;13.50;;;;;;;;5058445;27;46234;-75
2022/05/14 04:40:01;;;;;;;;;12.00;10.50;;;;;;;;5059130;27;45523;-75
2022/05/14 04:42:26;;;;;;;;;12.75;12.25;;;;;;;;5058560;28;45589;-75
2022/05/14 04:44:52;;;;;;;;;14.00;13.50;;;;;;;;5058248;28;45400;-75
2022/05/14 04:47:17;;;;;;;;;19.25;17.25;;;;;;;;5057065;28;45473;-75
2022/05/14 04:49:43;;;;;;;;;12.25;12.00;;;;;;;;5056684;28;45553;-75
2022/05/14 04:52:09;;;;;;;;;12.50;11.75;;;;;;;;5058531;28;45311;-77
2022/05/14 04:54:35;;;;;;;;;13.00;12.00;;;;;;;;5058407;28;45412;-74
2022/05/14 04:57:00;;;;;;;;;10.25;9.75;;;;;;;;5063630;28;47241;-75
2022/05/14 04:59:25;;;;;;;;;11.00;10.25;;;;;;;;5069438;27;45395;-76
2022/05/14 05:04:38;;;;;;;;;13.75;12.75;;;;;;;;5068828;27;45331;-75
2022/05/14 05:07:03;;;;;;;;;12.50;10.25;;;;;;;;5041151;28;48152;-75
2022/05/14 05:09:28;;;;;;;;;9.25;8.50;;;;;;;;5058121;28;45466;-75
2022/05/14 05:11:53;;;;;;;;;10.00;9.75;;;;;;;;5060749;28;45653;-74
2022/05/14 05:14:19;;;;;;;;;21.50;15.00;;;;;;;;5069221;28;45268;-75
2022/05/14 05:16:44;;;;;;;;;15.25;11.75;;;;;;;;5064739;28;47124;-75
2022/05/14 05:19:09;;;;;;;;;15.00;12.75;;;;;;;;5057783;28;45696;-74
2022/05/14 05:21:35;;;;;;;;;19.25;13.00;;;;;;;;5039867;28;45535;-74
2022/05/14 05:24:05;;;;;;;;;30.75;26.75;;;;;;;;5057528;28;45452;-74
2022/05/14 05:26:30;;;;;;;;;10.75;10.75;;;;;;;;5056764;28;45482;-76
2022/05/14 05:28:56;;;;;;;;;19.25;14.75;;;;;;;;5052948;28;45225;-76
2022/05/14 05:31:21;;;;;;;;;14.00;14.00;;;;;;;;5060083;28;45316;-74
2022/05/14 05:33:46;;;;;;;;;10.25;9.25;;;;;;;;5067007;28;45479;-74
2022/05/14 05:36:11;;;;;;;;;12.50;9.00;;;;;;;;5063619;27;45930;-75
2022/05/14 05:38:37;;;;;;;;;9.75;9.00;;;;;;;;5057537;28;45442;-75
2022/05/14 05:41:03;;;;;;;;;10.25;8.75;;;;;;;;5053432;28;45391;-75
2022/05/14 05:43:28;;;;;;;;;15.00;13.50;;;;;;;;5058331;27;45364;-76
2022/05/14 05:45:53;;;;;;;;;9.50;9.50;;;;;;;;5057032;28;46116;-75
2022/05/14 05:48:19;;;;;;;;;9.25;9.25;;;;;;;;5062735;28;45474;-75
2022/05/14 05:50:48;;;;;;;;;12.25;11.50;;;;;;;;5067069;28;45313;-77
2022/05/14 05:53:14;;;;;;;;;10.00;10.00;;;;;;;;5054749;28;45426;-75
2022/05/14 05:58:23;;;;;;;;;7.00;7.00;;;;;;;;5058403;28;45357;-76
2022/05/14 06:00:48;;;;;;;;;7.75;7.75;;;;;;;;5056908;28;45390;-77
2022/05/14 06:03:14;;;;;;;;;9.50;7.75;;;;;;;;5062085;28;45517;-74
2022/05/14 06:05:39;;;;;;;;;4.75;4.00;;;;;;;;5067512;28;46968;-76
2022/05/14 06:08:15;;;;;;;;;3.75;3.75;;;;;;;;5051902;28;45471;-76
2022/05/14 06:10:41;;;;;;;;;7.00;6.00;;;;;;;;5056208;28;45161;-76
2022/05/14 06:13:08;;;;;;;;;4.75;4.25;;;;;;;;5048691;28;45406;-76
2022/05/14 06:15:34;;;;;;;;;4.25;3.75;;;;;;;;5059779;28;46318;-75
2022/05/14 06:18:03;;;;;;;;;6.25;6.25;;;;;;;;5056720;28;45284;-73
2022/05/14 06:20:28;;;;;;;;;10.25;10.00;;;;;;;;5053494;28;45393;-77
2022/05/14 06:22:54;;;;;;;;;6.75;6.75;;;;;;;;5057830;28;45418;-76
2022/05/14 06:25:19;;;;;;;;;10.00;10.00;;;;;;;;5059048;28;46239;-75
2022/05/14 06:27:45;;;;;;;;;12.25;9.75;;;;;;;;5056917;28;45359;-76
2022/05/14 06:30:10;;;;;;;;;5.50;5.50;;;;;;;;5060233;28;45560;-75
2022/05/14 06:32:36;;;;;;;;;10.50;9.00;;;;;;;;5064298;28;45446;-76
2022/05/14 06:35:01;;;;;;;;;7.00;7.00;;;;;;;;5056344;28;46128;-76
2022/05/14 06:37:27;;;;;;;;;7.00;7.00;;;;;;;;5062529;27;45313;-76
2022/05/14 06:39:52;;;;;;;;;8.00;6.00;;;;;;;;5060521;27;45420;-76
2022/05/14 06:42:18;;;;;;;;;7.00;6.00;;;;;;;;5062272;28;45443;-73
2022/05/14 06:44:43;;;;;;;;;7.00;6.75;;;;;;;;5054028;28;47227;-73
2022/05/14 06:47:08;;;;;;;;;6.50;5.50;;;;;;;;5056668;28;45384;-72
2022/05/14 06:49:33;;;;;;;;;7.00;6.00;;;;;;;;5060932;28;45278;-74
2022/05/14 06:52:01;;;;;;;;;7.75;4.00;;;;;;;;5060957;28;45535;-72
2022/05/14 06:54:27;;;;;;;;;3.25;3.00;;;;;;;;5059611;28;46312;-75
2022/05/14 06:56:52;;;;;;;;;6.00;5.00;;;;;;;;5061167;28;45548;-72
2022/05/14 06:59:17;;;;;;;;;2.50;2.25;;;;;;;;5069547;28;45354;-72
2022/05/14 07:01:44;;;;;;;;;5.25;2.25;;;;;;;;5057803;28;45351;-74
2022/05/14 07:06:56;;;;;;;;;8.25;6.50;;;;;;;;5059499;27;45238;-74
2022/05/14 07:09:23;;;;;;;;;1.50;1.50;;;;;;;;5059355;28;45420;-77
2022/05/14 07:11:50;;;;;;;;;4.00;4.00;;;;;;;;5059432;28;45420;-76
2022/05/14 07:14:18;;;;;;;;;1.25;1.25;;;;;;;;5056169;28;47454;-75
2022/05/14 07:16:44;;;;;;;;;13.00;8.75;;;;;;;;5056678;28;45331;-75
2022/05/14 07:19:10;;;;;;;;;4.25;3.25;;;;;;;;5059001;28;45303;-76
2022/05/14 07:21:37;;;;;;;;;2.50;2.00;;;;;;;;5040869;28;45277;-74
2022/05/14 07:24:04;;;;;;;;;2.50;2.50;;;;;;;;5068130;27;45457;-74
2022/05/14 07:26:29;;;;;;;;;2.50;2.50;;;;;;;;5065241;28;45315;-75
2022/05/14 07:28:54;;;;;;;;;4.00;4.00;;;;;;;;5067405;27;45367;-74
2022/05/14 07:31:20;;;;;;;;;4.50;4.00;;;;;;;;5064925;27;45404;-76
2022/05/14 07:33:45;;;;;;;;;6.75;6.50;;;;;;;;5046545;28;47108;-74
2022/05/14 07:36:13;;;;;;;;;2.00;2.00;;;;;;;;5065498;28;45475;-74
2022/05/14 07:38:39;;;;;;;;;5.00;4.00;;;;;;;;5059224;28;45506;-74
2022/05/14 07:41:05;;;;;;;;;5.25;2.50;;;;;;;;5052254;28;45739;-75
2022/05/14 07:43:33;;;;;;;;;4.00;4.00;;;;;;;;5050347;28;46260;-70
2022/05/14 07:46:01;;;;;;;;;5.00;4.00;;;;;;;;5047026;28;45521;-69
2022/05/14 07:48:29;;;;;;;;;1.75;1.75;;;;;;;;5044015;28;45457;-68
2022/05/14 07:50:54;;;;;;;;;3.50;3.50;;;;;;;;5051656;28;45536;-70
2022/05/14 07:53:20;;;;;;;;;3.00;2.00;;;;;;;;5044393;28;47302;-70
2022/05/14 07:55:45;;;;;;;;;2.25;2.25;;;;;;;;5047476;28;45384;-71
2022/05/14 07:58:11;;;;;;;;;4.75;3.75;;;;;;;;5056180;28;45754;-74
2022/05/14 08:00:37;;;;;;;;;2.75;2.50;;;;;;;;5058432;28;45371;-73
2022/05/14 08:03:02;;;;;;;;;5.25;3.75;;;;;;;;5062199;27;46238;-73
2022/05/14 08:05:28;;;;;;;;;4.00;4.00;;;;;;;;5054177;28;45483;-72
2022/05/14 08:07:53;;;;;;;;;3.50;2.50;;;;;;;;5060587;28;45478;-71
2022/05/14 08:10:18;;;;;;;;;10.00;4.00;;;;;;;;5063558;28;45294;-71
2022/05/14 08:12:45;;;;;;;;;3.75;3.75;;;;;;;;5060588;27;46231;-73
2022/05/14 08:15:12;;;;;;;;;2.25;1.50;;;;;;;;5059943;28;45866;-72
2022/05/14 08:17:37;;;;;;;;;4.00;4.00;;;;;;;;5063372;28;45478;-73
2022/05/14 08:20:03;;;;;;;;;2.00;2.00;;;;;;;;5057545;27;45450;-72
2022/05/14 08:25:12;;;;;;;;;4.25;4.25;;;;;;;;5039287;28;45513;-74
2022/05/14 08:27:44;;;;;;;;;3.00;3.00;;;;;;;;5040899;28;45340;-73
2022/05/14 08:30:18;;;;;;;;;11.00;9.25;;;;;;;;5040758;28;45918;-73
2022/05/14 08:32:43;;;;;;;;;4.25;3.50;;;;;;;;5040370;28;46128;-74
2022/05/14 08:35:09;;;;;;;;;5.50;4.00;;;;;;;;5037752;28;45350;-73
2022/05/14 08:37:34;;;;;;;;;6.00;4.50;;;;;;;;5038801;28;45329;-74
2022/05/14 08:40:04;;;;;;;;;4.75;3.00;;;;;;;;5040490;28;45239;-73
2022/05/14 08:42:31;;;;;;;;;6.75;4.00;;;;;;;;5040319;28;45360;-72
2022/05/14 08:44:56;;;;;;;;;5.00;5.00;;;;;;;;5031074;28;45257;-73
2022/05/14 08:47:24;;;;;;;;;5.75;5.50;;;;;;;;5056667;28;45239;-71
2022/05/14 08:49:53;;;;;;;;;5.25;5.00;;;;;;;;5054786;28;50038;-73
2022/05/14 08:52:20;;;;;;;;;3.00;3.00;;;;;;;;5058390;28;46196;-73
2022/05/14 08:54:45;;;;;;;;;4.25;4.25;;;;;;;;5057602;28;45313;-73
2022/05/14 08:57:20;;;;;;;;;5.75;5.00;;;;;;;;5058011;28;45440;-73
2022/05/14 08:59:52;;;;;;;;;4.00;4.00;;;;;;;;5057774;28;45527;-73
2022/05/14 09:02:25;;;;;;;;;6.50;5.25;;;;;;;;5055602;28;47371;-73
2022/05/14 09:04:58;;;;;;;;;6.75;4.00;;;;;;;;5053956;27;45466;-74
2022/05/14 09:07:23;;;;;;;;;8.75;4.25;;;;;;;;5059509;28;45428;-73
2022/05/14 09:09:50;;;;;;;;;7.25;5.00;;;;;;;;5057872;28;45458;-73
2022/05/14 09:12:17;;;;;;;;;2.00;2.00;;;;;;;;5056334;28;46128;-73
2022/05/14 09:14:42;;;;;;;;;4.00;4.00;;;;;;;;5056592;28;45618;-73
2022/05/14 09:17:12;;;;;;;;;3.00;3.00;;;;;;;;5053185;28;45430;-73
2022/05/14 09:19:39;;;;;;;;;5.00;4.50;;;;;;;;5057150;28;45484;-74
2022/05/14 09:22:10;;;;;;;;;3.00;3.00;;;;;;;;5056085;28;45291;-73
2022/05/14 09:24:39;;;;;;;;;8.25;5.75;;;;;;;;5038883;28;45345;-72
2022/05/14 09:27:09;;;;;;;;;9.25;7.00;;;;;;;;5038425;28;45447;-72
2022/05/14 09:29:38;;;;;;;;;6.00;6.00;;;;;;;;5056663;28;45666;-72
2022/05/14 09:32:05;;;;;;;;;6.50;5.00;;;;;;;;5052688;28;46198;-74
2022/05/14 09:34:31;;;;;;;;;3.50;3.50;;;;;;;;5058123;28;45476;-73
2022/05/14 09:37:05;;;;;;;;;5.75;5.00;;;;;;;;5057234;28;45286;-73
2022/05/14 09:39:31;;;;;;;;;4.50;4.50;;;;;;;;5056992;28;45518;-74
2022/05/14 09:41:57;;;;;;;;;3.50;3.25;;;;;;;;5056449;28;46173;-73
2022/05/14 09:44:24;;;;;;;;;4.00;4.00;;;;;;;;5055664;28;45651;-73
2022/05/14 09:46:50;;;;;;;;;4.25;4.25;;;;;;;;5054234;28;45360;-73
2022/05/14 09:49:20;;;;;;;;;5.75;4.75;;;;;;;;5058780;28;45422;-74
2022/05/14 09:52:05;;;;;;;;;5.75;3.00;;;;;;;;5062143;28;46199;-73
2022/05/14 09:54:36;;;;;;;;;3.50;3.50;;;;;;;;5059982;28;45449;-73
2022/05/14 09:57:25;;;;;;;;;4.75;4.00;;;;;;;;5056552;27;45416;-72
2022/05/14 10:00:08;;;;;;;;;3.00;3.00;;;;;;;;5056994;28;45387;-73
2022/05/14 10:02:52;;;;;;;;;3.75;3.00;;;;;;;;5037000;28;47376;-72
2022/05/14 10:05:36;;;;;;;;;4.00;4.00;;;;;;;;5040398;28;45534;-74
2022/05/14 10:08:16;;;;;;;;;5.00;3.50;;;;;;;;5036310;28;45261;-74
2022/05/14 10:10:50;;;;;;;;;6.50;5.75;;;;;;;;5066929;28;45317;-74
2022/05/14 10:13:24;;;;;;;;;5.00;3.75;;;;;;;;5056652;28;47373;-73
2022/05/14 10:15:55;;;;;;;;;4.50;4.25;;;;;;;;5056691;28;45314;-73
2022/05/14 10:18:20;;;;;;;;;6.00;6.00;;;;;;;;5056429;28;45474;-73
2022/05/14 10:20:51;;;;;;;;;3.75;3.75;;;;;;;;5056440;28;45464;-73
2022/05/14 10:29:18;;;;;;;;;5.00;5.00;;;;;;;;5038860;28;45545;-74
2022/05/14 10:32:04;;;;;;;;;3.00;2.00;;;;;;;;5054431;28;45316;-73
2022/05/14 10:34:48;;;;;;;;;2.75;2.75;;;;;;;;5065773;27;46384;-74
2022/05/14 10:37:32;;;;;;;;;4.00;4.00;;;;;;;;5055861;28;45336;-74
2022/05/14 10:40:07;;;;;;;;;2.75;2.50;;;;;;;;5056466;28;45450;-73
2022/05/14 10:42:35;;;;;;;;;3.67;3.67;;;;;;;;5056175;27;45389;-72
2022/05/14 10:45:20;;;;;;;;;5.75;5.75;;;;;;;;5054335;28;46314;-72
2022/05/14 10:47:48;;;;;;;;;3.75;3.00;;;;;;;;5055197;28;45579;-74
2022/05/14 10:50:18;;;;;;;;;7.00;6.00;;;;;;;;5053753;28;45416;-71
2022/05/14 10:52:44;;;;;;;;;3.50;3.50;;;;;;;;5054821;28;45350;-73
2022/05/14 10:55:15;;;;;;;;;3.00;3.00;;;;;;;;5058187;28;46145;-73
2022/05/14 10:57:43;;;;;;;;;3.00;3.00;;;;;;;;5056072;27;45424;-73
2022/05/14 11:00:14;;;;;;;;;4.75;3.50;;;;;;;;5056164;28;45588;-73
2022/05/14 11:02:53;;;;;;;;;3.25;3.25;;;;;;;;5055978;28;45537;-74
2022/05/14 11:05:46;;;;;;;;;8.00;8.00;;;;;;;;5053557;28;47188;-72
2022/05/14 11:08:13;;;;;;;;;1.50;1.50;;;;;;;;5035108;28;45356;-72
2022/05/14 11:10:39;;;;;;;;;4.50;4.50;;;;;;;;5055796;28;45387;-72
2022/05/14 11:13:17;;;;;;;;;3.75;3.75;;;;;;;;5057039;28;45318;-73
2022/05/14 11:15:43;;;;;;;;;4.50;4.50;;;;;;;;5057351;28;47143;-73
2022/05/14 11:18:10;;;;;;;;;6.50;6.00;;;;;;;;5059121;28;45384;-74
2022/05/14 11:20:35;;;;;;;;;4.00;4.00;;;;;;;;5059292;28;45230;-72
2022/05/14 11:23:06;;;;;;;;;5.00;4.25;;;;;;;;5055167;28;45429;-73
2022/05/14 11:25:31;;;;;;;;;11.25;7.50;;;;;;;;5069434;27;46163;-73
2022/05/14 11:27:56;;;;;;;;;5.00;5.00;;;;;;;;5058577;28;45280;-73
2022/05/14 11:30:36;;;;;;;;;8.25;8.00;;;;;;;;5059004;28;45430;-73
2022/05/14 11:33:03;;;;;;;;;11.00;10.00;;;;;;;;5059027;28;45497;-73
2022/05/14 11:35:42;;;;;;;;;11.50;6.25;;;;;;;;5058276;28;45741;-73
2022/05/14 11:38:16;;;;;;;;;4.00;4.00;;;;;;;;5040217;28;45407;-73
2022/05/14 11:40:41;;;;;;;;;5.00;5.00;;;;;;;;5039318;28;45293;-73
2022/05/14 11:43:06;;;;;;;;;5.00;3.33;;;;;;;;5060339;27;45592;-73
2022/05/14 11:45:33;;;;;;;;;5.50;5.25;;;;;;;;5057968;27;47133;-72
2022/05/14 11:48:08;;;;;;;;;4.00;4.00;;;;;;;;5058413;28;45456;-74
2022/05/14 11:50:33;;;;;;;;;5.50;5.50;;;;;;;;5058451;28;45364;-73
2022/05/14 11:53:19;;;;;;;;;8.75;7.25;;;;;;;;5054419;28;45268;-73
2022/05/14 11:55:52;;;;;;;;;5.50;4.00;;;;;;;;5083542;27;48224;-73
2022/05/14 11:58:43;;;;;;;;;3.00;3.00;;;;;;;;5058985;28;45325;-73
2022/05/14 12:01:21;;;;;;;;;5.75;5.75;;;;;;;;5056493;28;45731;-73
2022/05/14 12:03:47;;;;;;;;;5.00;4.75;;;;;;;;5058399;28;45351;-72
2022/05/14 12:06:31;;;;;;;;;4.25;3.25;;;;;;;;5058279;27;46305;-72
2022/05/14 12:09:15;;;;;;;;;4.00;4.00;;;;;;;;5058670;28;45364;-73
2022/05/14 12:11:44;;;;;;;;;2.50;1.25;;;;;;;;5058710;28;45448;-73
2022/05/14 12:14:13;;;;;;;;;9.75;7.50;;;;;;;;5054800;28;45655;-72
2022/05/14 12:16:41;;;;;;;;;5.00;5.00;;;;;;;;5058293;28;46280;-73
2022/05/14 12:19:15;;;;;;;;;5.25;5.25;;;;;;;;5041087;28;45441;-72
2022/05/14 12:21:40;;;;;;;;;9.00;6.75;;;;;;;;5058533;27;45538;-73
2022/05/14 12:24:16;;;;;;;;;4.25;4.25;;;;;;;;5058464;28;45413;-73
2022/05/14 12:26:43;;;;;;;;;8.00;7.75;;;;;;;;5057689;27;47208;-73
2022/05/14 12:29:13;;;;;;;;;7.75;7.75;;;;;;;;5036155;28;45468;-73
2022/05/14 12:34:31;;;;;;;;;4.00;4.00;;;;;;;;5059279;28;45535;-73
2022/05/14 12:36:57;;;;;;;;;4.00;4.00;;;;;;;;5056166;28;46141;-73
2022/05/14 12:39:24;;;;;;;;;2.50;1.25;;;;;;;;5057177;28;45550;-73
2022/05/14 12:41:54;;;;;;;;;9.75;8.00;;;;;;;;5056925;28;45482;-73
2022/05/14 12:44:31;;;;;;;;;4.50;4.50;;;;;;;;5055461;28;45306;-73
2022/05/14 12:46:58;;;;;;;;;5.75;4.00;;;;;;;;5053781;27;46666;-73
2022/05/14 12:49:29;;;;;;;;;3.75;3.75;;;;;;;;5059602;28;45455;-73
2022/05/14 12:51:56;;;;;;;;;10.50;8.25;;;;;;;;5057262;28;45244;-72
2022/05/14 12:54:24;;;;;;;;;4.00;4.00;;;;;;;;5057607;27;45373;-73
2022/05/14 12:56:52;;;;;;;;;3.50;3.50;;;;;;;;5057597;28;47147;-73
2022/05/14 12:59:17;;;;;;;;;14.75;13.50;;;;;;;;5053881;28;45431;-73
2022/05/14 13:01:42;;;;;;;;;7.00;6.00;;;;;;;;5056786;28;45336;-73
2022/05/14 13:04:09;;;;;;;;;6.00;5.00;;;;;;;;5056926;27;45311;-73
2022/05/14 13:06:39;;;;;;;;;5.00;5.00;;;;;;;;5057447;27;46339;-73
2022/05/14 13:09:07;;;;;;;;;6.75;5.00;;;;;;;;5057019;27;45352;-73
2022/05/14 13:11:34;;;;;;;;;5.50;4.50;;;;;;;;5057155;28;45584;-73
2022/05/14 13:14:11;;;;;;;;;4.75;4.75;;;;;;;;5036121;28;45308;-71
2022/05/14 13:16:36;;;;;;;;;20.50;17.50;;;;;;;;5067077;27;46291;-72
2022/05/14 13:19:06;;;;;;;;;4.25;4.00;;;;;;;;5057763;28;45375;-73
2022/05/14 13:21:34;;;;;;;;;9.25;8.00;;;;;;;;5056940;28;45427;-73
2022/05/14 13:24:00;;;;;;;;;5.25;5.00;;;;;;;;5057513;28;45523;-73
2022/05/14 13:26:26;;;;;;;;;7.00;5.75;;;;;;;;5055678;28;46103;-73
2022/05/14 13:28:51;;;;;;;;;7.00;7.00;;;;;;;;5053708;28;45293;-73
2022/05/14 13:31:26;;;;;;;;;7.75;7.00;;;;;;;;5059367;28;45320;-73
2022/05/14 13:37:12;;;;;;;;;7.00;5.33;;;;;;;;5054764;27;45851;-72
2022/05/14 13:39:40;;;;;;;;;5.00;5.00;;;;;;;;5056475;28;45497;-73
2022/05/14 13:42:10;;;;;;;;;6.00;6.00;;;;;;;;5056822;28;45459;-73
2022/05/14 13:44:36;;;;;;;;;4.50;4.00;;;;;;;;5056437;28;45602;-73
2022/05/14 13:47:03;;;;;;;;;5.50;4.25;;;;;;;;5052256;28;47028;-72
2022/05/14 13:49:30;;;;;;;;;5.00;4.00;;;;;;;;5066266;28;45412;-72
2022/05/14 13:51:57;;;;;;;;;4.00;4.00;;;;;;;;5057297;27;45402;-72
2022/05/14 13:54:28;;;;;;;;;3.75;3.00;;;;;;;;5057007;28;45495;-72
2022/05/14 13:57:00;;;;;;;;;5.00;4.67;;;;;;;;5056590;28;45435;-73
2022/05/14 13:59:28;;;;;;;;;4.00;4.00;;;;;;;;5055405;28;45478;-73
2022/05/14 14:01:55;;;;;;;;;7.25;7.00;;;;;;;;5053719;28;45306;-73
2022/05/14 14:04:25;;;;;;;;;6.50;6.50;;;;;;;;5058214;28;45457;-74
2022/05/14 14:06:54;;;;;;;;;6.50;5.50;;;;;;;;5056021;28;45510;-74
2022/05/14 14:09:19;;;;;;;;;5.67;5.67;;;;;;;;5056303;28;45375;-73
2022/05/14 14:11:45;;;;;;;;;7.75;6.50;;;;;;;;5056245;28;45522;-74
2022/05/14 14:14:10;;;;;;;;;4.75;4.25;;;;;;;;5053215;28;45524;-73
2022/05/14 14:16:35;;;;;;;;;4.00;4.00;;;;;;;;5057113;28;45415;-72
2022/05/14 14:19:01;;;;;;;;;2.67;2.00;;;;;;;;5057659;28;45486;-74
2022/05/14 14:21:27;;;;;;;;;3.00;3.00;;;;;;;;5055980;28;45478;-74
2022/05/14 14:23:53;;;;;;;;;7.00;5.67;;;;;;;;5056505;28;45395;-73
2022/05/14 14:26:18;;;;;;;;;5.00;4.25;;;;;;;;5051601;28;46296;-73
2022/05/14 14:28:46;;;;;;;;;3.25;3.25;;;;;;;;5069186;27;45351;-73
2022/05/14 14:31:11;;;;;;;;;4.25;3.50;;;;;;;;5058861;28;45577;-73
2022/05/14 14:33:37;;;;;;;;;10.75;9.25;;;;;;;;5056909;28;45555;-74
2022/05/14 14:36:03;;;;;;;;;9.75;6.25;;;;;;;;5055890;28;46183;-73
2022/05/14 14:38:28;;;;;;;;;4.75;4.00;;;;;;;;5055535;28;45485;-74
2022/05/14 14:40:54;;;;;;;;;6.00;6.00;;;;;;;;5052341;28;45943;-72
2022/05/14 14:43:21;;;;;;;;;8.00;6.75;;;;;;;;5058583;28;45402;-73
2022/05/14 14:45:47;;;;;;;;;9.00;6.00;;;;;;;;5056069;27;47138;-74
2022/05/14 14:48:13;;;;;;;;;3.75;3.50;;;;;;;;5055600;28;45381;-72
2022/05/14 14:50:38;;;;;;;;;6.00;6.00;;;;;;;;5057874;27;45451;-74
2022/05/14 14:53:04;;;;;;;;;9.50;8.00;;;;;;;;5056378;28;45478;-74
2022/05/14 14:55:29;;;;;;;;;5.00;5.00;;;;;;;;5062041;28;45338;-74
2022/05/14 14:57:54;;;;;;;;;3.00;3.00;;;;;;;;5060214;27;45268;-73
2022/05/14 15:00:21;;;;;;;;;6.50;5.25;;;;;;;;5060154;28;45346;-73
2022/05/14 15:02:51;;;;;;;;;7.25;6.25;;;;;;;;5059556;27;45329;-73
2022/05/14 15:05:19;;;;;;;;;6.50;5.50;;;;;;;;5056844;28;46123;-73
2022/05/14 15:07:44;;;;;;;;;5.75;5.50;;;;;;;;5057452;28;45384;-72
2022/05/14 15:10:10;;;;;;;;;6.75;5.75;;;;;;;;5061022;28;45468;-73